Florencia — IBPD — position and weather

sailwx.info

Track history (hours):
 
Tides and Currents Weather Stations Pressure Air Temp Water Temp Dewpoint Dewpoint Depression Visibility Wind Speed Wind Dir Waves Ship Positions

Florencia

Last reported at 2017-Feb-24 04:16 UTC. Time now 2017-Feb-24 21:37 UTC.
Position N 39°00' E 015°16'.

Length 186 m; draft 6.5 m.

Type: Ship (hazmat cat C). MMSI: 247105900.

Date/timePositionNaut miles runAvg speedWind from/ knotsBaromVisibWave heightAir tempDewpointWater temp
2017-Feb-24 04:16N 39°00' E 015°16'1721.9
2017-Feb-24 03:29N 38°45' E 015°26'2021.7
2017-Feb-24 02:33N 38°27' E 015°37'1817.8
2017-Feb-24 01:33N 38°09' E 015°36'2221.5
2017-Feb-24 00:33N 37°49' E 015°25'2421.8
2017-Feb-23 23:27N 37°28' E 015°11'2 0.2
2017-Feb-23 08:28N 37°28' E 015°08'1820.1
2017-Feb-23 07:33N 37°43' E 015°21'2221.6
2017-Feb-23 06:33N 38°03' E 015°32'2019.8
2017-Feb-23 05:33N 38°22' E 015°38'2121.5
2017-Feb-23 04:33N 38°41' E 015°26'2121.0
2017-Feb-23 03:33N 39°00' E 015°15'4 0.2
2017-Feb-22 04:08N 38°59' E 015°19'1322.2
2017-Feb-22 03:33N 38°48' E 015°28'2222.2
2017-Feb-22 02:33N 38°27' E 015°38'1717.0
2017-Feb-22 01:33N 38°11' E 015°36'1919.3
2017-Feb-22 00:33N 37°53' E 015°27'2421.2
2017-Feb-21 23:25N 37°31' E 015°14'7 1.7
2017-Feb-21 19:29N 37°29' E 015°06'2 0.2
2017-Feb-21 08:32N 37°28' E 015°08'2120.9
2017-Feb-21 07:31N 37°46' E 015°23'2122.4
2017-Feb-21 06:33N 38°06' E 015°34'1919.0
2017-Feb-21 05:34N 38°24' E 015°41'2221.8
2017-Feb-21 04:34N 38°46' E 015°41'2221.5
2017-Feb-21 03:33N 39°07' E 015°41'19 0.7
2017-Feb-20 01:17N 38°58' E 015°19'1622.6
2017-Feb-20 00:33N 38°45' E 015°30'2222.3
2017-Feb-19 23:34N 38°24' E 015°40'1716.8
2017-Feb-19 22:33N 38°07' E 015°37'1919.1
2017-Feb-19 21:33N 37°50' E 015°25'1919.5
2017-Feb-19 20:33N 37°33' E 015°14'8 0.6
2017-Feb-19 08:33N 37°29' E 015°06'1413.1
2017-Feb-19 07:30N 37°39' E 015°18'2020.9
2017-Feb-19 06:33N 37°57' E 015°29'2120.7
2017-Feb-19 05:34N 38°15' E 015°39'2019.6
2017-Feb-19 04:33N 38°34' E 015°31'2020.3
2017-Feb-19 03:33N 38°52' E 015°18'5 0.2
2017-Feb-18 03:33N 38°50' E 015°24'2222.4
2017-Feb-18 02:34N 38°29' E 015°36'1716.8
2017-Feb-18 01:34N 38°13' E 015°36'2020.0
2017-Feb-18 00:34N 37°54' E 015°28'2221.0
2017-Feb-17 23:31N 37°34' E 015°16'9 0.6
2017-Feb-17 08:03N 37°29' E 015°06'5 8.8
2017-Feb-17 07:31N 37°30' E 015°12'2122.0
2017-Feb-17 06:33N 37°48' E 015°24'2222.2
2017-Feb-17 05:33N 38°09' E 015°35'2120.7
2017-Feb-17 04:33N 38°29' E 015°41'2221.7
2017-Feb-17 03:32N 38°51' E 015°41'14 0.6
2017-Feb-16 03:33N 38°49' E 015°24'2222.0
2017-Feb-16 02:34N 38°29' E 015°35'1616.5
2017-Feb-16 01:34N 38°12' E 015°37'2020.1
2017-Feb-16 00:34N 37°53' E 015°29'2221.2
2017-Feb-15 23:30N 37°34' E 015°15'3 0.2
2017-Feb-15 07:20N 37°36' E 015°17'1722.4
2017-Feb-15 06:33N 37°52' E 015°26'2221.7
2017-Feb-15 05:33N 38°12' E 015°36'2020.1
2017-Feb-15 04:33N 38°32' E 015°41'2121.4
2017-Feb-15 03:33N 38°53' E 015°41'  
Track history (hours):
 
Tides and Currents Weather Stations Pressure Air Temp Water Temp Dewpoint Dewpoint Depression Visibility Wind Speed Wind Dir Waves Ship Positions

Florencia

Last reported at 2017-Feb-24 04:16 UTC. Time now 2017-Feb-24 21:37 UTC.
Position N 39°00' E 015°16'.

Length 186 m; draft 6.5 m.

Type: Ship (hazmat cat C). MMSI: 247105900.

Date/timePositionNaut miles runAvg speedWind from/ knotsBaromVisibWave heightAir tempDewpointWater temp
2017-Feb-24 04:16N 39°00' E 015°16'1721.9
2017-Feb-24 03:29N 38°45' E 015°26'2021.7
2017-Feb-24 02:33N 38°27' E 015°37'1817.8
2017-Feb-24 01:33N 38°09' E 015°36'2221.5
2017-Feb-24 00:33N 37°49' E 015°25'2421.8
2017-Feb-23 23:27N 37°28' E 015°11'2 0.2
2017-Feb-23 08:28N 37°28' E 015°08'1820.1
2017-Feb-23 07:33N 37°43' E 015°21'2221.6
2017-Feb-23 06:33N 38°03' E 015°32'2019.8
2017-Feb-23 05:33N 38°22' E 015°38'2121.5
2017-Feb-23 04:33N 38°41' E 015°26'2121.0
2017-Feb-23 03:33N 39°00' E 015°15'4 0.2
2017-Feb-22 04:08N 38°59' E 015°19'1322.2
2017-Feb-22 03:33N 38°48' E 015°28'2222.2
2017-Feb-22 02:33N 38°27' E 015°38'1717.0
2017-Feb-22 01:33N 38°11' E 015°36'1919.3
2017-Feb-22 00:33N 37°53' E 015°27'2421.2
2017-Feb-21 23:25N 37°31' E 015°14'7 1.7
2017-Feb-21 19:29N 37°29' E 015°06'2 0.2
2017-Feb-21 08:32N 37°28' E 015°08'2120.9
2017-Feb-21 07:31N 37°46' E 015°23'2122.4
2017-Feb-21 06:33N 38°06' E 015°34'1919.0
2017-Feb-21 05:34N 38°24' E 015°41'2221.8
2017-Feb-21 04:34N 38°46' E 015°41'2221.5
2017-Feb-21 03:33N 39°07' E 015°41'19 0.7
2017-Feb-20 01:17N 38°58' E 015°19'1622.6
2017-Feb-20 00:33N 38°45' E 015°30'2222.3
2017-Feb-19 23:34N 38°24' E 015°40'1716.8
2017-Feb-19 22:33N 38°07' E 015°37'1919.1
2017-Feb-19 21:33N 37°50' E 015°25'1919.5
2017-Feb-19 20:33N 37°33' E 015°14'8 0.6
2017-Feb-19 08:33N 37°29' E 015°06'1413.1
2017-Feb-19 07:30N 37°39' E 015°18'2020.9
2017-Feb-19 06:33N 37°57' E 015°29'2120.7
2017-Feb-19 05:34N 38°15' E 015°39'2019.6
2017-Feb-19 04:33N 38°34' E 015°31'2020.3
2017-Feb-19 03:33N 38°52' E 015°18'5 0.2
2017-Feb-18 03:33N 38°50' E 015°24'2222.4
2017-Feb-18 02:34N 38°29' E 015°36'1716.8
2017-Feb-18 01:34N 38°13' E 015°36'2020.0
2017-Feb-18 00:34N 37°54' E 015°28'2221.0
2017-Feb-17 23:31N 37°34' E 015°16'9 0.6
2017-Feb-17 08:03N 37°29' E 015°06'5 8.8
2017-Feb-17 07:31N 37°30' E 015°12'2122.0
2017-Feb-17 06:33N 37°48' E 015°24'2222.2
2017-Feb-17 05:33N 38°09' E 015°35'2120.7
2017-Feb-17 04:33N 38°29' E 015°41'2221.7
2017-Feb-17 03:32N 38°51' E 015°41'14 0.6
2017-Feb-16 03:33N 38°49' E 015°24'2222.0
2017-Feb-16 02:34N 38°29' E 015°35'1616.5
2017-Feb-16 01:34N 38°12' E 015°37'2020.1
2017-Feb-16 00:34N 37°53' E 015°29'2221.2
2017-Feb-15 23:30N 37°34' E 015°15'3 0.2
2017-Feb-15 07:20N 37°36' E 015°17'1722.4
2017-Feb-15 06:33N 37°52' E 015°26'2221.7
2017-Feb-15 05:33N 38°12' E 015°36'2020.1
2017-Feb-15 04:33N 38°32' E 015°41'2121.4
2017-Feb-15 03:33N 38°53' E 015°41'  

Dump ship's entire track history